sensor_id;sensor_type;location;lat;lon;timestamp;P1;durP1;ratioP1;P2;durP2;ratioP2
39518;SDS011;25200;53.394;10.414;2023-12-28T00:00:29;6.70;;;2.53;;
39518;SDS011;25200;53.394;10.414;2023-12-28T00:02:55;6.40;;;2.42;;
39518;SDS011;25200;53.394;10.414;2023-12-28T00:05:21;5.90;;;2.72;;
39518;SDS011;25200;53.394;10.414;2023-12-28T00:07:47;4.05;;;2.08;;
39518;SDS011;25200;53.394;10.414;2023-12-28T00:10:12;5.15;;;2.50;;
39518;SDS011;25200;53.394;10.414;2023-12-28T00:12:38;6.93;;;2.42;;
39518;SDS011;25200;53.394;10.414;2023-12-28T00:15:04;5.43;;;2.13;;
39518;SDS011;25200;53.394;10.414;2023-12-28T00:17:29;6.25;;;2.10;;
39518;SDS011;25200;53.394;10.414;2023-12-28T00:19:55;4.25;;;1.83;;
39518;SDS011;25200;53.394;10.414;2023-12-28T00:22:21;7.63;;;2.22;;
39518;SDS011;25200;53.394;10.414;2023-12-28T00:24:46;4.85;;;1.90;;
39518;SDS011;25200;53.394;10.414;2023-12-28T00:27:12;5.53;;;2.00;;
39518;SDS011;25200;53.394;10.414;2023-12-28T00:29:37;6.00;;;2.03;;
39518;SDS011;25200;53.394;10.414;2023-12-28T00:32:06;5.03;;;2.08;;
39518;SDS011;25200;53.394;10.414;2023-12-28T00:34:32;4.82;;;2.10;;
39518;SDS011;25200;53.394;10.414;2023-12-28T00:36:58;6.25;;;2.03;;
39518;SDS011;25200;53.394;10.414;2023-12-28T00:39:23;5.78;;;2.38;;
39518;SDS011;25200;53.394;10.414;2023-12-28T00:41:49;5.25;;;1.98;;
39518;SDS011;25200;53.394;10.414;2023-12-28T00:44:15;4.22;;;2.03;;
39518;SDS011;25200;53.394;10.414;2023-12-28T00:46:40;5.32;;;2.20;;
39518;SDS011;25200;53.394;10.414;2023-12-28T00:49:07;5.13;;;1.90;;
39518;SDS011;25200;53.394;10.414;2023-12-28T00:51:33;6.20;;;2.05;;
39518;SDS011;25200;53.394;10.414;2023-12-28T00:53:59;5.78;;;2.10;;
39518;SDS011;25200;53.394;10.414;2023-12-28T00:56:25;4.95;;;2.10;;
39518;SDS011;25200;53.394;10.414;2023-12-28T00:58:50;5.18;;;2.22;;
39518;SDS011;25200;53.394;10.414;2023-12-28T01:01:16;6.00;;;2.25;;
39518;SDS011;25200;53.394;10.414;2023-12-28T01:03:42;4.65;;;2.15;;
39518;SDS011;25200;53.394;10.414;2023-12-28T01:06:08;5.28;;;2.00;;
39518;SDS011;25200;53.394;10.414;2023-12-28T01:08:34;6.93;;;2.20;;
39518;SDS011;25200;53.394;10.414;2023-12-28T01:10:59;4.45;;;2.10;;
39518;SDS011;25200;53.394;10.414;2023-12-28T01:13:25;8.98;;;2.53;;
39518;SDS011;25200;53.394;10.414;2023-12-28T01:15:52;6.03;;;2.17;;
39518;SDS011;25200;53.394;10.414;2023-12-28T01:18:18;6.15;;;2.13;;
39518;SDS011;25200;53.394;10.414;2023-12-28T01:20:44;4.68;;;2.30;;
39518;SDS011;25200;53.394;10.414;2023-12-28T01:23:09;6.65;;;2.30;;
39518;SDS011;25200;53.394;10.414;2023-12-28T01:25:35;6.53;;;2.20;;
39518;SDS011;25200;53.394;10.414;2023-12-28T01:28:01;8.32;;;2.17;;
39518;SDS011;25200;53.394;10.414;2023-12-28T01:30:26;4.70;;;2.05;;
39518;SDS011;25200;53.394;10.414;2023-12-28T01:32:52;5.95;;;2.33;;
39518;SDS011;25200;53.394;10.414;2023-12-28T01:35:18;5.55;;;2.10;;
39518;SDS011;25200;53.394;10.414;2023-12-28T01:37:44;5.72;;;2.35;;
39518;SDS011;25200;53.394;10.414;2023-12-28T01:40:10;5.32;;;2.25;;
39518;SDS011;25200;53.394;10.414;2023-12-28T01:42:36;5.07;;;2.38;;
39518;SDS011;25200;53.394;10.414;2023-12-28T01:45:02;5.10;;;2.08;;
39518;SDS011;25200;53.394;10.414;2023-12-28T01:47:28;7.75;;;2.08;;
39518;SDS011;25200;53.394;10.414;2023-12-28T01:49:54;7.20;;;2.17;;
39518;SDS011;25200;53.394;10.414;2023-12-28T01:52:22;9.45;;;2.55;;
39518;SDS011;25200;53.394;10.414;2023-12-28T01:54:47;4.97;;;2.17;;
39518;SDS011;25200;53.394;10.414;2023-12-28T01:57:14;5.28;;;2.00;;
39518;SDS011;25200;53.394;10.414;2023-12-28T01:59:41;8.27;;;2.40;;
39518;SDS011;25200;53.394;10.414;2023-12-28T02:02:07;8.25;;;2.15;;
39518;SDS011;25200;53.394;10.414;2023-12-28T02:04:33;6.63;;;2.30;;
39518;SDS011;25200;53.394;10.414;2023-12-28T02:07:00;4.82;;;1.85;;
39518;SDS011;25200;53.394;10.414;2023-12-28T02:09:26;5.50;;;2.30;;
39518;SDS011;25200;53.394;10.414;2023-12-28T02:11:52;8.65;;;2.40;;
39518;SDS011;25200;53.394;10.414;2023-12-28T02:14:18;4.72;;;2.13;;
39518;SDS011;25200;53.394;10.414;2023-12-28T02:16:47;6.90;;;2.38;;
39518;SDS011;25200;53.394;10.414;2023-12-28T02:21:50;5.80;;;2.30;;
39518;SDS011;25200;53.394;10.414;2023-12-28T02:24:16;4.93;;;2.28;;
39518;SDS011;25200;53.394;10.414;2023-12-28T02:26:41;5.18;;;2.53;;
39518;SDS011;25200;53.394;10.414;2023-12-28T02:29:07;6.35;;;2.35;;
39518;SDS011;25200;53.394;10.414;2023-12-28T02:31:45;6.40;;;2.47;;
39518;SDS011;25200;53.394;10.414;2023-12-28T02:34:18;6.68;;;2.70;;
39518;SDS011;25200;53.394;10.414;2023-12-28T02:36:49;5.82;;;2.30;;
39518;SDS011;25200;53.394;10.414;2023-12-28T02:39:16;9.27;;;3.00;;
39518;SDS011;25200;53.394;10.414;2023-12-28T02:41:43;4.82;;;2.45;;
39518;SDS011;25200;53.394;10.414;2023-12-28T02:44:10;6.85;;;2.97;;
39518;SDS011;25200;53.394;10.414;2023-12-28T02:46:36;6.32;;;2.47;;
39518;SDS011;25200;53.394;10.414;2023-12-28T02:49:01;7.10;;;2.97;;
39518;SDS011;25200;53.394;10.414;2023-12-28T02:51:27;6.35;;;2.65;;
39518;SDS011;25200;53.394;10.414;2023-12-28T02:53:52;5.38;;;2.50;;
39518;SDS011;25200;53.394;10.414;2023-12-28T02:56:18;7.55;;;2.75;;
39518;SDS011;25200;53.394;10.414;2023-12-28T02:58:44;6.88;;;3.00;;
39518;SDS011;25200;53.394;10.414;2023-12-28T03:01:09;7.43;;;2.97;;
39518;SDS011;25200;53.394;10.414;2023-12-28T03:03:35;6.25;;;2.70;;
39518;SDS011;25200;53.394;10.414;2023-12-28T03:06:00;8.63;;;3.10;;
39518;SDS011;25200;53.394;10.414;2023-12-28T03:08:26;7.93;;;3.05;;
39518;SDS011;25200;53.394;10.414;2023-12-28T03:10:52;7.53;;;2.85;;
39518;SDS011;25200;53.394;10.414;2023-12-28T03:13:18;6.93;;;2.67;;
39518;SDS011;25200;53.394;10.414;2023-12-28T03:15:43;6.63;;;2.97;;
39518;SDS011;25200;53.394;10.414;2023-12-28T03:18:09;7.30;;;3.13;;
39518;SDS011;25200;53.394;10.414;2023-12-28T03:20:34;7.53;;;3.35;;
39518;SDS011;25200;53.394;10.414;2023-12-28T03:23:00;8.10;;;3.20;;
39518;SDS011;25200;53.394;10.414;2023-12-28T03:25:26;9.93;;;3.28;;
39518;SDS011;25200;53.394;10.414;2023-12-28T03:27:51;6.95;;;3.10;;
39518;SDS011;25200;53.394;10.414;2023-12-28T03:30:17;7.10;;;3.25;;
39518;SDS011;25200;53.394;10.414;2023-12-28T03:32:43;6.97;;;3.65;;
39518;SDS011;25200;53.394;10.414;2023-12-28T03:35:08;6.82;;;3.17;;
39518;SDS011;25200;53.394;10.414;2023-12-28T03:37:34;7.05;;;3.17;;
39518;SDS011;25200;53.394;10.414;2023-12-28T03:40:00;7.15;;;3.47;;
39518;SDS011;25200;53.394;10.414;2023-12-28T03:42:26;6.97;;;3.30;;
39518;SDS011;25200;53.394;10.414;2023-12-28T03:44:51;9.10;;;3.17;;
39518;SDS011;25200;53.394;10.414;2023-12-28T03:47:17;6.07;;;2.97;;
39518;SDS011;25200;53.394;10.414;2023-12-28T03:49:42;6.68;;;3.15;;
39518;SDS011;25200;53.394;10.414;2023-12-28T03:52:08;8.00;;;3.40;;
39518;SDS011;25200;53.394;10.414;2023-12-28T03:54:34;6.07;;;3.03;;
39518;SDS011;25200;53.394;10.414;2023-12-28T03:56:59;7.45;;;3.40;;
39518;SDS011;25200;53.394;10.414;2023-12-28T03:59:25;5.90;;;3.05;;
39518;SDS011;25200;53.394;10.414;2023-12-28T04:01:50;5.55;;;2.97;;
39518;SDS011;25200;53.394;10.414;2023-12-28T04:04:16;8.63;;;3.10;;
39518;SDS011;25200;53.394;10.414;2023-12-28T04:06:42;8.63;;;3.30;;
39518;SDS011;25200;53.394;10.414;2023-12-28T04:09:10;6.07;;;2.83;;
39518;SDS011;25200;53.394;10.414;2023-12-28T04:11:37;7.85;;;3.15;;
39518;SDS011;25200;53.394;10.414;2023-12-28T04:14:03;6.70;;;3.30;;
39518;SDS011;25200;53.394;10.414;2023-12-28T04:16:28;7.60;;;2.85;;
39518;SDS011;25200;53.394;10.414;2023-12-28T04:18:54;8.25;;;3.15;;
39518;SDS011;25200;53.394;10.414;2023-12-28T04:21:20;5.38;;;2.72;;
39518;SDS011;25200;53.394;10.414;2023-12-28T04:23:46;8.40;;;3.30;;
39518;SDS011;25200;53.394;10.414;2023-12-28T04:26:12;7.40;;;3.38;;
39518;SDS011;25200;53.394;10.414;2023-12-28T04:28:38;7.60;;;3.00;;
39518;SDS011;25200;53.394;10.414;2023-12-28T04:31:05;11.77;;;3.33;;
39518;SDS011;25200;53.394;10.414;2023-12-28T04:33:31;7.28;;;2.95;;
39518;SDS011;25200;53.394;10.414;2023-12-28T04:36:00;6.82;;;3.10;;
39518;SDS011;25200;53.394;10.414;2023-12-28T04:38:30;9.25;;;3.00;;
39518;SDS011;25200;53.394;10.414;2023-12-28T04:40:56;7.75;;;2.97;;
39518;SDS011;25200;53.394;10.414;2023-12-28T04:43:22;6.45;;;3.58;;
39518;SDS011;25200;53.394;10.414;2023-12-28T04:45:51;6.63;;;3.22;;
39518;SDS011;25200;53.394;10.414;2023-12-28T04:48:17;6.43;;;2.80;;
39518;SDS011;25200;53.394;10.414;2023-12-28T04:50:48;6.15;;;2.90;;
39518;SDS011;25200;53.394;10.414;2023-12-28T04:53:14;7.50;;;3.00;;
39518;SDS011;25200;53.394;10.414;2023-12-28T04:55:40;7.13;;;3.08;;
39518;SDS011;25200;53.394;10.414;2023-12-28T04:58:06;10.32;;;3.25;;
39518;SDS011;25200;53.394;10.414;2023-12-28T05:00:31;8.65;;;3.15;;
39518;SDS011;25200;53.394;10.414;2023-12-28T05:02:57;8.25;;;3.03;;
39518;SDS011;25200;53.394;10.414;2023-12-28T05:05:23;11.00;;;3.00;;
39518;SDS011;25200;53.394;10.414;2023-12-28T05:07:48;8.25;;;3.28;;
39518;SDS011;25200;53.394;10.414;2023-12-28T05:10:14;6.15;;;3.05;;
39518;SDS011;25200;53.394;10.414;2023-12-28T05:12:40;8.23;;;3.30;;
39518;SDS011;25200;53.394;10.414;2023-12-28T05:15:05;4.97;;;2.67;;
39518;SDS011;25200;53.394;10.414;2023-12-28T05:17:31;6.60;;;2.70;;
39518;SDS011;25200;53.394;10.414;2023-12-28T05:19:57;8.30;;;3.30;;
39518;SDS011;25200;53.394;10.414;2023-12-28T05:22:22;8.48;;;3.00;;
39518;SDS011;25200;53.394;10.414;2023-12-28T05:24:48;9.05;;;3.33;;
39518;SDS011;25200;53.394;10.414;2023-12-28T05:27:14;9.18;;;3.05;;
39518;SDS011;25200;53.394;10.414;2023-12-28T05:29:39;6.95;;;3.38;;
39518;SDS011;25200;53.394;10.414;2023-12-28T05:32:05;8.07;;;3.00;;
39518;SDS011;25200;53.394;10.414;2023-12-28T05:34:31;6.88;;;2.67;;
39518;SDS011;25200;53.394;10.414;2023-12-28T05:36:56;9.32;;;3.38;;
39518;SDS011;25200;53.394;10.414;2023-12-28T05:39:22;6.68;;;2.80;;
39518;SDS011;25200;53.394;10.414;2023-12-28T05:41:48;10.23;;;3.20;;
39518;SDS011;25200;53.394;10.414;2023-12-28T05:44:15;4.72;;;2.40;;
39518;SDS011;25200;53.394;10.414;2023-12-28T05:46:41;6.25;;;2.92;;
39518;SDS011;25200;53.394;10.414;2023-12-28T05:49:07;7.20;;;2.95;;
39518;SDS011;25200;53.394;10.414;2023-12-28T05:51:39;6.38;;;2.40;;
39518;SDS011;25200;53.394;10.414;2023-12-28T05:54:05;9.93;;;3.20;;
39518;SDS011;25200;53.394;10.414;2023-12-28T05:56:31;7.20;;;3.00;;
39518;SDS011;25200;53.394;10.414;2023-12-28T05:58:56;8.10;;;3.20;;
39518;SDS011;25200;53.394;10.414;2023-12-28T06:01:22;6.90;;;3.20;;
39518;SDS011;25200;53.394;10.414;2023-12-28T06:03:48;6.38;;;2.90;;
39518;SDS011;25200;53.394;10.414;2023-12-28T06:06:15;8.45;;;3.20;;
39518;SDS011;25200;53.394;10.414;2023-12-28T06:08:41;8.40;;;2.83;;
39518;SDS011;25200;53.394;10.414;2023-12-28T06:11:07;9.25;;;3.00;;
39518;SDS011;25200;53.394;10.414;2023-12-28T06:13:32;7.55;;;2.70;;
39518;SDS011;25200;53.394;10.414;2023-12-28T06:15:58;10.25;;;3.13;;
39518;SDS011;25200;53.394;10.414;2023-12-28T06:18:24;7.00;;;3.10;;
39518;SDS011;25200;53.394;10.414;2023-12-28T06:20:49;5.20;;;2.63;;
39518;SDS011;25200;53.394;10.414;2023-12-28T06:23:15;9.10;;;3.17;;
39518;SDS011;25200;53.394;10.414;2023-12-28T06:25:40;11.25;;;2.80;;
39518;SDS011;25200;53.394;10.414;2023-12-28T06:28:06;7.53;;;3.28;;
39518;SDS011;25200;53.394;10.414;2023-12-28T06:30:32;12.88;;;3.63;;
39518;SDS011;25200;53.394;10.414;2023-12-28T06:32:57;7.60;;;2.95;;
39518;SDS011;25200;53.394;10.414;2023-12-28T06:35:23;6.05;;;2.78;;
39518;SDS011;25200;53.394;10.414;2023-12-28T06:37:49;6.35;;;2.78;;
39518;SDS011;25200;53.394;10.414;2023-12-28T06:40:14;8.02;;;3.17;;
39518;SDS011;25200;53.394;10.414;2023-12-28T06:42:40;11.45;;;2.83;;
39518;SDS011;25200;53.394;10.414;2023-12-28T06:45:08;8.50;;;3.00;;
39518;SDS011;25200;53.394;10.414;2023-12-28T06:47:34;6.72;;;2.70;;
39518;SDS011;25200;53.394;10.414;2023-12-28T06:50:00;9.57;;;2.55;;
39518;SDS011;25200;53.394;10.414;2023-12-28T06:52:25;9.40;;;2.70;;
39518;SDS011;25200;53.394;10.414;2023-12-28T06:54:51;5.47;;;2.70;;
39518;SDS011;25200;53.394;10.414;2023-12-28T06:57:18;6.18;;;2.30;;
39518;SDS011;25200;53.394;10.414;2023-12-28T06:59:44;6.70;;;2.60;;
39518;SDS011;25200;53.394;10.414;2023-12-28T07:02:09;6.63;;;2.38;;
39518;SDS011;25200;53.394;10.414;2023-12-28T07:04:35;7.43;;;2.50;;
39518;SDS011;25200;53.394;10.414;2023-12-28T07:07:01;8.88;;;2.88;;
39518;SDS011;25200;53.394;10.414;2023-12-28T07:09:26;7.80;;;2.80;;
39518;SDS011;25200;53.394;10.414;2023-12-28T07:11:52;7.40;;;2.67;;
39518;SDS011;25200;53.394;10.414;2023-12-28T07:14:18;8.18;;;2.60;;
39518;SDS011;25200;53.394;10.414;2023-12-28T07:16:43;9.57;;;2.47;;
39518;SDS011;25200;53.394;10.414;2023-12-28T07:19:09;9.57;;;2.53;;
39518;SDS011;25200;53.394;10.414;2023-12-28T07:21:34;7.25;;;2.50;;
39518;SDS011;25200;53.394;10.414;2023-12-28T07:24:00;8.85;;;2.55;;
39518;SDS011;25200;53.394;10.414;2023-12-28T07:26:26;8.55;;;2.53;;
39518;SDS011;25200;53.394;10.414;2023-12-28T07:28:51;7.93;;;2.78;;
39518;SDS011;25200;53.394;10.414;2023-12-28T07:31:26;7.78;;;2.25;;
39518;SDS011;25200;53.394;10.414;2023-12-28T07:33:53;8.48;;;2.50;;
39518;SDS011;25200;53.394;10.414;2023-12-28T07:36:19;6.68;;;2.20;;
39518;SDS011;25200;53.394;10.414;2023-12-28T07:38:45;8.18;;;2.40;;
39518;SDS011;25200;53.394;10.414;2023-12-28T07:41:11;6.20;;;2.17;;
39518;SDS011;25200;53.394;10.414;2023-12-28T07:43:36;8.43;;;2.15;;
39518;SDS011;25200;53.394;10.414;2023-12-28T07:46:02;6.93;;;2.30;;
39518;SDS011;25200;53.394;10.414;2023-12-28T07:48:28;7.72;;;2.38;;
39518;SDS011;25200;53.394;10.414;2023-12-28T07:50:55;8.23;;;2.33;;
39518;SDS011;25200;53.394;10.414;2023-12-28T07:53:24;7.28;;;2.47;;
39518;SDS011;25200;53.394;10.414;2023-12-28T07:55:50;9.88;;;2.63;;
39518;SDS011;25200;53.394;10.414;2023-12-28T07:58:15;9.98;;;2.30;;
39518;SDS011;25200;53.394;10.414;2023-12-28T08:00:41;9.88;;;2.30;;
39518;SDS011;25200;53.394;10.414;2023-12-28T08:03:07;5.20;;;2.08;;
39518;SDS011;25200;53.394;10.414;2023-12-28T08:05:32;7.45;;;2.50;;
39518;SDS011;25200;53.394;10.414;2023-12-28T08:07:58;9.25;;;2.25;;
39518;SDS011;25200;53.394;10.414;2023-12-28T08:10:23;5.53;;;2.20;;
39518;SDS011;25200;53.394;10.414;2023-12-28T08:12:49;5.63;;;2.28;;
39518;SDS011;25200;53.394;10.414;2023-12-28T08:15:15;8.02;;;2.47;;
39518;SDS011;25200;53.394;10.414;2023-12-28T08:17:40;7.57;;;2.15;;
39518;SDS011;25200;53.394;10.414;2023-12-28T08:20:06;6.95;;;2.30;;
39518;SDS011;25200;53.394;10.414;2023-12-28T08:22:32;8.68;;;2.30;;
39518;SDS011;25200;53.394;10.414;2023-12-28T08:24:58;7.60;;;2.13;;
39518;SDS011;25200;53.394;10.414;2023-12-28T08:27:24;7.75;;;2.47;;
39518;SDS011;25200;53.394;10.414;2023-12-28T08:29:50;10.20;;;2.60;;
39518;SDS011;25200;53.394;10.414;2023-12-28T08:32:15;6.65;;;1.95;;
39518;SDS011;25200;53.394;10.414;2023-12-28T08:34:42;9.18;;;2.25;;
39518;SDS011;25200;53.394;10.414;2023-12-28T08:37:08;8.43;;;2.40;;
39518;SDS011;25200;53.394;10.414;2023-12-28T08:39:33;11.25;;;2.15;;
39518;SDS011;25200;53.394;10.414;2023-12-28T08:41:59;7.28;;;2.33;;
39518;SDS011;25200;53.394;10.414;2023-12-28T08:44:25;10.32;;;2.33;;
39518;SDS011;25200;53.394;10.414;2023-12-28T08:46:50;9.60;;;2.42;;
39518;SDS011;25200;53.394;10.414;2023-12-28T08:49:16;6.05;;;2.28;;
39518;SDS011;25200;53.394;10.414;2023-12-28T08:51:42;7.40;;;2.00;;
39518;SDS011;25200;53.394;10.414;2023-12-28T08:54:07;8.07;;;2.25;;
39518;SDS011;25200;53.394;10.414;2023-12-28T08:56:34;9.63;;;2.58;;
39518;SDS011;25200;53.394;10.414;2023-12-28T08:59:00;8.40;;;2.03;;
39518;SDS011;25200;53.394;10.414;2023-12-28T09:01:26;6.30;;;1.88;;
39518;SDS011;25200;53.394;10.414;2023-12-28T09:03:53;6.65;;;2.10;;
39518;SDS011;25200;53.394;10.414;2023-12-28T09:06:21;7.45;;;2.00;;
39518;SDS011;25200;53.394;10.414;2023-12-28T09:08:49;9.77;;;2.33;;
39518;SDS011;25200;53.394;10.414;2023-12-28T09:11:16;8.48;;;2.10;;
39518;SDS011;25200;53.394;10.414;2023-12-28T09:13:42;9.93;;;2.15;;
39518;SDS011;25200;53.394;10.414;2023-12-28T09:16:10;8.45;;;2.30;;
39518;SDS011;25200;53.394;10.414;2023-12-28T09:18:37;9.20;;;2.17;;
39518;SDS011;25200;53.394;10.414;2023-12-28T09:21:03;9.70;;;2.20;;
39518;SDS011;25200;53.394;10.414;2023-12-28T09:23:30;9.32;;;2.00;;
39518;SDS011;25200;53.394;10.414;2023-12-28T09:25:57;7.05;;;2.28;;
39518;SDS011;25200;53.394;10.414;2023-12-28T09:28:23;9.32;;;2.10;;
39518;SDS011;25200;53.394;10.414;2023-12-28T09:30:49;8.48;;;2.20;;
39518;SDS011;25200;53.394;10.414;2023-12-28T09:33:15;12.98;;;2.65;;
39518;SDS011;25200;53.394;10.414;2023-12-28T09:35:41;11.00;;;2.10;;
39518;SDS011;25200;53.394;10.414;2023-12-28T09:38:07;8.20;;;2.22;;
39518;SDS011;25200;53.394;10.414;2023-12-28T09:40:34;10.10;;;2.20;;
39518;SDS011;25200;53.394;10.414;2023-12-28T09:43:13;12.32;;;2.35;;
39518;SDS011;25200;53.394;10.414;2023-12-28T09:45:46;7.72;;;1.77;;
39518;SDS011;25200;53.394;10.414;2023-12-28T09:48:18;8.50;;;2.08;;
39518;SDS011;25200;53.394;10.414;2023-12-28T09:50:45;7.43;;;1.95;;
39518;SDS011;25200;53.394;10.414;2023-12-28T09:53:15;6.90;;;1.77;;
39518;SDS011;25200;53.394;10.414;2023-12-28T09:55:41;7.43;;;1.75;;
39518;SDS011;25200;53.394;10.414;2023-12-28T09:58:08;8.52;;;1.90;;
39518;SDS011;25200;53.394;10.414;2023-12-28T10:00:37;10.07;;;2.25;;
39518;SDS011;25200;53.394;10.414;2023-12-28T10:03:03;6.95;;;1.98;;
39518;SDS011;25200;53.394;10.414;2023-12-28T10:05:29;8.98;;;1.88;;
39518;SDS011;25200;53.394;10.414;2023-12-28T10:07:55;13.10;;;2.03;;
39518;SDS011;25200;53.394;10.414;2023-12-28T10:10:22;9.02;;;2.30;;
39518;SDS011;25200;53.394;10.414;2023-12-28T10:12:47;8.43;;;1.98;;
39518;SDS011;25200;53.394;10.414;2023-12-28T10:15:13;7.75;;;1.77;;
39518;SDS011;25200;53.394;10.414;2023-12-28T10:17:39;12.52;;;2.83;;
39518;SDS011;25200;53.394;10.414;2023-12-28T10:20:05;11.25;;;2.47;;
39518;SDS011;25200;53.394;10.414;2023-12-28T10:22:34;9.93;;;2.10;;
39518;SDS011;25200;53.394;10.414;2023-12-28T10:25:05;10.52;;;2.30;;
39518;SDS011;25200;53.394;10.414;2023-12-28T10:27:30;9.13;;;1.95;;
39518;SDS011;25200;53.394;10.414;2023-12-28T10:29:56;8.50;;;1.98;;
39518;SDS011;25200;53.394;10.414;2023-12-28T10:32:22;9.35;;;2.47;;
39518;SDS011;25200;53.394;10.414;2023-12-28T10:34:51;8.27;;;2.13;;
39518;SDS011;25200;53.394;10.414;2023-12-28T10:37:20;9.90;;;1.95;;
39518;SDS011;25200;53.394;10.414;2023-12-28T10:39:47;8.77;;;2.30;;
39518;SDS011;25200;53.394;10.414;2023-12-28T10:42:16;11.05;;;2.30;;
39518;SDS011;25200;53.394;10.414;2023-12-28T10:44:53;7.32;;;2.00;;
39518;SDS011;25200;53.394;10.414;2023-12-28T10:47:26;12.85;;;2.10;;
39518;SDS011;25200;53.394;10.414;2023-12-28T10:49:56;8.82;;;2.00;;
39518;SDS011;25200;53.394;10.414;2023-12-28T10:52:26;9.63;;;2.95;;
39518;SDS011;25200;53.394;10.414;2023-12-28T10:55:07;11.60;;;2.13;;
39518;SDS011;25200;53.394;10.414;2023-12-28T10:57:58;10.65;;;2.15;;
39518;SDS011;25200;53.394;10.414;2023-12-28T11:00:30;11.32;;;2.20;;
39518;SDS011;25200;53.394;10.414;2023-12-28T11:03:02;7.72;;;2.22;;
39518;SDS011;25200;53.394;10.414;2023-12-28T11:05:31;8.55;;;2.17;;
39518;SDS011;25200;53.394;10.414;2023-12-28T11:07:59;8.82;;;1.95;;
39518;SDS011;25200;53.394;10.414;2023-12-28T11:10:28;6.63;;;2.25;;
39518;SDS011;25200;53.394;10.414;2023-12-28T11:12:58;7.40;;;2.00;;
39518;SDS011;25200;53.394;10.414;2023-12-28T11:15:25;6.10;;;1.95;;
39518;SDS011;25200;53.394;10.414;2023-12-28T11:17:51;9.00;;;2.58;;
39518;SDS011;25200;53.394;10.414;2023-12-28T11:20:17;9.80;;;2.45;;
39518;SDS011;25200;53.394;10.414;2023-12-28T11:22:44;10.75;;;2.33;;
39518;SDS011;25200;53.394;10.414;2023-12-28T11:25:16;8.95;;;2.15;;
39518;SDS011;25200;53.394;10.414;2023-12-28T11:27:43;12.95;;;2.30;;
39518;SDS011;25200;53.394;10.414;2023-12-28T11:30:12;10.52;;;2.55;;
39518;SDS011;25200;53.394;10.414;2023-12-28T11:32:42;7.90;;;2.30;;
39518;SDS011;25200;53.394;10.414;2023-12-28T11:35:12;11.07;;;2.38;;
39518;SDS011;25200;53.394;10.414;2023-12-28T11:37:42;8.43;;;2.05;;
39518;SDS011;25200;53.394;10.414;2023-12-28T11:40:12;10.30;;;2.05;;
39518;SDS011;25200;53.394;10.414;2023-12-28T11:42:50;9.45;;;2.25;;
39518;SDS011;25200;53.394;10.414;2023-12-28T11:45:18;8.77;;;2.30;;
39518;SDS011;25200;53.394;10.414;2023-12-28T11:47:44;14.48;;;2.22;;
39518;SDS011;25200;53.394;10.414;2023-12-28T11:50:10;8.45;;;2.30;;
39518;SDS011;25200;53.394;10.414;2023-12-28T11:52:36;10.82;;;2.33;;
39518;SDS011;25200;53.394;10.414;2023-12-28T11:55:02;12.07;;;2.10;;
39518;SDS011;25200;53.394;10.414;2023-12-28T11:57:29;13.10;;;3.03;;
39518;SDS011;25200;53.394;10.414;2023-12-28T11:59:55;9.82;;;1.85;;
39518;SDS011;25200;53.394;10.414;2023-12-28T12:02:22;9.82;;;2.10;;
39518;SDS011;25200;53.394;10.414;2023-12-28T12:04:49;11.90;;;2.13;;
39518;SDS011;25200;53.394;10.414;2023-12-28T12:07:15;12.07;;;2.75;;
39518;SDS011;25200;53.394;10.414;2023-12-28T12:09:41;12.05;;;2.50;;
39518;SDS011;25200;53.394;10.414;2023-12-28T12:12:07;10.48;;;2.10;;
39518;SDS011;25200;53.394;10.414;2023-12-28T12:14:34;7.60;;;2.15;;
39518;SDS011;25200;53.394;10.414;2023-12-28T12:17:00;9.85;;;2.10;;
39518;SDS011;25200;53.394;10.414;2023-12-28T12:19:26;7.93;;;2.20;;
39518;SDS011;25200;53.394;10.414;2023-12-28T12:21:53;18.70;;;2.80;;
39518;SDS011;25200;53.394;10.414;2023-12-28T12:24:19;10.27;;;2.20;;
39518;SDS011;25200;53.394;10.414;2023-12-28T12:26:46;16.35;;;2.53;;
39518;SDS011;25200;53.394;10.414;2023-12-28T12:29:12;15.20;;;2.70;;
39518;SDS011;25200;53.394;10.414;2023-12-28T12:31:39;11.25;;;2.58;;
39518;SDS011;25200;53.394;10.414;2023-12-28T12:34:10;16.42;;;2.55;;
39518;SDS011;25200;53.394;10.414;2023-12-28T12:36:36;11.45;;;2.60;;
39518;SDS011;25200;53.394;10.414;2023-12-28T12:39:03;14.00;;;2.50;;
39518;SDS011;25200;53.394;10.414;2023-12-28T12:41:33;15.68;;;2.75;;
39518;SDS011;25200;53.394;10.414;2023-12-28T12:43:59;11.48;;;2.60;;
39518;SDS011;25200;53.394;10.414;2023-12-28T12:46:25;11.75;;;2.55;;
39518;SDS011;25200;53.394;10.414;2023-12-28T12:48:57;13.48;;;2.35;;
39518;SDS011;25200;53.394;10.414;2023-12-28T12:51:24;14.05;;;2.30;;
39518;SDS011;25200;53.394;10.414;2023-12-28T12:53:56;13.32;;;2.33;;
39518;SDS011;25200;53.394;10.414;2023-12-28T12:56:25;14.05;;;3.13;;
39518;SDS011;25200;53.394;10.414;2023-12-28T12:58:53;15.23;;;2.33;;
39518;SDS011;25200;53.394;10.414;2023-12-28T13:01:19;14.02;;;2.60;;
39518;SDS011;25200;53.394;10.414;2023-12-28T13:03:45;12.05;;;2.70;;
39518;SDS011;25200;53.394;10.414;2023-12-28T13:06:11;9.13;;;2.38;;
39518;SDS011;25200;53.394;10.414;2023-12-28T13:08:37;14.38;;;2.10;;
39518;SDS011;25200;53.394;10.414;2023-12-28T13:11:03;12.70;;;2.53;;
39518;SDS011;25200;53.394;10.414;2023-12-28T13:13:31;16.10;;;3.47;;
39518;SDS011;25200;53.394;10.414;2023-12-28T13:15:58;15.85;;;2.50;;
39518;SDS011;25200;53.394;10.414;2023-12-28T13:18:23;11.25;;;2.35;;
39518;SDS011;25200;53.394;10.414;2023-12-28T13:20:49;13.13;;;2.60;;
39518;SDS011;25200;53.394;10.414;2023-12-28T13:23:15;16.83;;;3.22;;
39518;SDS011;25200;53.394;10.414;2023-12-28T13:25:40;12.20;;;2.03;;
39518;SDS011;25200;53.394;10.414;2023-12-28T13:28:06;11.70;;;2.58;;
39518;SDS011;25200;53.394;10.414;2023-12-28T13:30:33;8.23;;;2.10;;
39518;SDS011;25200;53.394;10.414;2023-12-28T13:33:01;15.32;;;2.50;;
39518;SDS011;25200;53.394;10.414;2023-12-28T13:35:27;15.25;;;2.92;;
39518;SDS011;25200;53.394;10.414;2023-12-28T13:37:53;11.75;;;2.53;;
39518;SDS011;25200;53.394;10.414;2023-12-28T13:40:19;13.13;;;2.95;;
39518;SDS011;25200;53.394;10.414;2023-12-28T13:42:44;11.98;;;2.17;;
39518;SDS011;25200;53.394;10.414;2023-12-28T13:45:10;10.55;;;2.50;;
39518;SDS011;25200;53.394;10.414;2023-12-28T13:47:36;16.08;;;2.95;;
39518;SDS011;25200;53.394;10.414;2023-12-28T13:50:01;8.65;;;2.20;;
39518;SDS011;25200;53.394;10.414;2023-12-28T13:52:27;11.85;;;2.13;;
39518;SDS011;25200;53.394;10.414;2023-12-28T13:54:53;11.68;;;2.97;;
39518;SDS011;25200;53.394;10.414;2023-12-28T13:57:18;12.13;;;2.40;;
39518;SDS011;25200;53.394;10.414;2023-12-28T13:59:44;13.20;;;2.30;;
39518;SDS011;25200;53.394;10.414;2023-12-28T14:02:09;13.75;;;2.22;;
39518;SDS011;25200;53.394;10.414;2023-12-28T14:04:35;9.15;;;2.30;;
39518;SDS011;25200;53.394;10.414;2023-12-28T14:07:01;11.75;;;2.17;;
39518;SDS011;25200;53.394;10.414;2023-12-28T14:09:26;11.70;;;2.45;;
39518;SDS011;25200;53.394;10.414;2023-12-28T14:11:52;13.75;;;2.33;;
39518;SDS011;25200;53.394;10.414;2023-12-28T14:14:17;12.90;;;2.25;;
39518;SDS011;25200;53.394;10.414;2023-12-28T14:16:43;19.52;;;2.67;;
39518;SDS011;25200;53.394;10.414;2023-12-28T14:19:09;12.15;;;2.42;;
39518;SDS011;25200;53.394;10.414;2023-12-28T14:21:36;14.52;;;2.42;;
39518;SDS011;25200;53.394;10.414;2023-12-28T14:24:02;12.57;;;2.22;;
39518;SDS011;25200;53.394;10.414;2023-12-28T14:26:28;12.60;;;2.45;;
39518;SDS011;25200;53.394;10.414;2023-12-28T14:28:57;12.18;;;2.80;;